Latest Weather Observations for Onslow Airport

IDW60801

Issued at 12:13 pm WST Thursday 13 December 2018 (issued every 10 minutes, with the page automatically refreshed every 10 minutes)

About weather observations | Map of weather stations | Latest weather observations for WA | Other Formats
Station Details ID: 005017 Name: ONSLOW AIRPORT Lat: -21.67 Lon: 115.11 Height: 10.5 m
Data from the previous 72 hours. | See also: Recent months at Onslow Airport
Date/Time
WST
Temp
°C
App
Temp
°C
Dew
Point
°C
Rel
Hum
%
Delta-T
°C
Wind Press
QNH
hPa
Press
MSL
hPa
Rain since
9am
mm
Dir  Spd
km/h
Gust
km/h
Spd
kts
Gust
kts
13/12:00pm 33.4 31.2 18.7 41 9.6 WNW 28 33 15 18 1006.9 1006.8 0.0
13/11:30am 37.7 33.1 5.6 14 17.6 SW 19 28 10 15 1007.1 1007.0 0.0
13/11:00am 36.1 31.8 8.0 18 15.9 SW 20 28 11 15 1007.6 1007.5 0.0
13/10:30am 35.4 31.6 9.7 21 14.8 SW 20 30 11 16 1007.8 1007.7 0.0
13/10:00am 33.9 30.6 11.7 26 13.1 SSW 20 28 11 15 1008.1 1008.0 0.0
13/09:30am 32.1 29.0 13.3 31 11.3 SSW 22 28 12 15 1008.2 1008.1 0.0
13/09:00am 29.7 26.4 13.9 38 9.5 SSW 24 32 13 17 1008.3 1008.2 0.0
13/08:30am 27.8 24.3 14.4 43 8.1 SSW 26 35 14 19 1008.3 1008.2 0.0
13/08:00am 26.5 22.7 14.6 48 7.1 SSW 28 35 15 19 1008.3 1008.2 0.0
13/07:30am 25.0 20.9 15.0 53 6.0 SSW 30 41 16 22 1008.1 1008.0 0.0
13/07:00am 23.3 18.7 15.1 60 4.9 SSW 33 41 18 22 1007.9 1007.8 0.0
13/06:30am 22.3 17.9 15.2 64 4.2 SSW 32 41 17 22 1007.7 1007.6 0.0
13/06:00am 21.8 17.4 15.2 66 3.9 SSW 32 39 17 21 1007.5 1007.4 0.0
13/05:30am 21.6 17.6 15.2 67 3.8 SSW 30 37 16 20 1007.4 1007.3 0.0
13/05:00am 21.8 18.1 14.9 65 4.1 SSW 28 35 15 19 1007.2 1007.1 0.0
13/04:30am 22.2 18.2 15.1 64 4.2 SSW 30 35 16 19 1007.1 1007.0 0.0
13/04:00am 22.7 18.6 15.0 61 4.6 SSW 30 35 16 19 1007.0 1006.9 0.0
13/03:30am 23.0 19.2 14.8 60 4.9 SSW 28 35 15 19 1007.0 1006.9 0.0
13/03:00am 23.5 19.2 14.5 57 5.3 SSW 30 35 16 19 1006.9 1006.8 0.0
13/02:30am 24.0 19.5 13.8 53 6.0 SSW 30 39 16 21 1006.7 1006.6 0.0
13/02:00am 24.4 19.7 13.3 50 6.5 SSW 30 35 16 19 1006.7 1006.6 0.0
13/01:30am 24.9 20.0 12.5 46 7.1 SSW 30 39 16 21 1006.8 1006.7 0.0
13/01:00am 25.4 20.1 12.6 45 7.4 SSW 32 39 17 21 1006.8 1006.7 0.0
13/12:30am 25.9 20.4 12.0 42 8.0 SSW 32 39 17 21 1006.9 1006.8 0.0
13/12:00am 26.3 21.2 12.0 41 8.2 SW 30 39 16 21 1007.2 1007.1 0.0
 
Date/Time
WST
Temp
°C
App
Temp
°C
Dew
Point
°C
Rel
Hum
%
Delta-T
°C
Wind Press
QNH
hPa
Press
MSL
hPa
Rain since
9am
mm
Dir  Spd
km/h
Gust
km/h
Spd
kts
Gust
kts
12/11:30pm 26.2 21.3 12.6 43 7.9 SW 30 37 16 20 1007.4 1007.3 0.0
12/11:00pm 26.2 22.2 14.0 47 7.3 SW 28 35 15 19 1007.8 1007.7 0.0
12/10:30pm 26.6 23.0 15.3 50 6.9 SW 28 35 15 19 1007.8 1007.7 0.0
12/10:00pm 27.3 23.7 15.3 48 7.3 SW 28 35 15 19 1007.5 1007.4 0.0
12/09:30pm 28.0 24.3 15.0 45 7.9 SW 28 35 15 19 1007.2 1007.1 0.0
12/09:00pm 29.1 25.5 14.1 40 9.0 SW 26 35 14 19 1007.0 1006.9 0.0
12/08:30pm 30.2 25.8 13.0 34 10.2 WSW 28 35 15 19 1006.8 1006.7 0.0
12/08:00pm 31.1 26.8 12.0 31 11.2 WSW 26 35 14 19 1006.4 1006.3 0.0
12/07:30pm 32.6 27.7 11.2 27 12.5 WSW 28 35 15 19 1005.8 1005.7 0.0
12/07:00pm 34.7 30.5 8.4 20 14.9 SW 20 33 11 18 1005.5 1005.4 0.0
12/06:30pm 38.0 31.6 -1.9 8 19.5 SSW 22 28 12 15 1005.2 1005.1 0.0
12/06:00pm 39.2 32.5 -1.1 8 20.1 SSW 24 33 13 18 1005.0 1004.9 0.0
12/05:30pm 40.1 32.2 -4.3 6 21.2 SSW 28 41 15 22 1005.0 1004.9 0.0
12/05:00pm 40.7 33.3 -3.9 6 21.6 SSW 26 35 14 19 1004.9 1004.8 0.0
12/04:30pm 41.1 33.6 -1.5 7 21.3 SSW 28 41 15 22 1004.8 1004.7 0.0
12/04:00pm 41.3 33.5 -3.4 6 21.9 SSW 28 41 15 22 1004.8 1004.7 0.0
12/03:30pm 41.9 35.0 -3.0 6 22.1 SSW 24 39 13 21 1005.0 1004.9 0.0
12/03:00pm 41.4 34.4 -3.4 6 21.9 SSW 24 35 13 19 1005.4 1005.3 0.0
12/02:30pm 41.4 34.0 -3.4 6 21.9 SSW 26 33 14 18 1005.8 1005.7 0.0
12/02:00pm 41.1 34.3 -1.5 7 21.4 SW 24 37 13 20 1006.2 1006.1 0.0
12/01:30pm 40.7 34.4 1.7 9 20.5 SSW 24 32 13 17 1006.6 1006.5 0.0
12/01:00pm 39.6 32.8 0.9 9 20.0 SSW 26 35 14 19 1007.0 1006.9 0.0
12/12:30pm 38.9 33.0 1.8 10 19.3 S 22 33 12 18 1007.4 1007.3 0.0
12/12:00pm 38.1 31.6 2.5 11 18.7 S 26 35 14 19 1007.8 1007.7 0.0
12/11:30am 37.0 31.5 4.0 13 17.6 S 22 32 12 17 1008.2 1008.1 0.0
12/11:00am 36.4 31.4 6.6 16 16.5 S 22 32 12 17 1008.6 1008.5 0.0
12/10:30am 34.8 29.9 8.5 20 14.9 S 24 32 13 17 1009.2 1009.1 0.0
12/10:00am 33.1 27.8 8.5 22 13.8 S 26 32 14 17 1009.6 1009.5 0.0
12/09:30am 31.0 25.7 9.8 27 12.0 S 28 33 15 18 1009.9 1009.8 0.0
12/09:00am 29.9 24.9 9.4 28 11.5 S 26 33 14 18 1010.0 1009.9 0.0
12/08:30am 28.7 23.0 9.9 31 10.5 S 30 35 16 19 1010.2 1010.1 0.0
12/08:00am 27.0 21.2 10.7 36 9.2 S 32 39 17 21 1010.2 1010.1 0.0
12/07:30am 25.8 20.1 11.2 40 8.3 S 32 39 17 21 1010.3 1010.2 0.0
12/07:00am 24.1 18.4 11.8 46 7.0 S 33 43 18 23 1010.1 1010.0 0.0
12/06:30am 22.7 17.2 12.3 52 5.9 SSW 33 41 18 22 1010.1 1010.0 0.0
12/06:00am 22.0 17.7 12.0 53 5.6 SSW 26 35 14 19 1010.1 1010.0 0.0
12/05:30am 21.9 17.2 11.9 53 5.6 SSW 28 35 15 19 1009.8 1009.7 0.0
12/05:00am 22.2 18.1 11.3 50 6.1 SSW 24 33 13 18 1009.6 1009.5 0.0
12/04:30am 22.7 17.3 10.8 47 6.6 SSW 30 43 16 23 1009.1 1009.0 0.0
12/04:00am 23.5 17.6 11.2 46 6.9 SSW 33 43 18 23 1008.7 1008.6 0.0
12/03:30am 24.0 19.2 11.7 46 6.9 SSW 28 35 15 19 1008.7 1008.6 0.0
12/03:00am 24.2 19.6 12.2 47 6.9 SSW 28 33 15 18 1008.5 1008.4 0.0
12/02:30am 24.5 19.6 12.5 47 6.9 SSW 30 35 16 19 1008.4 1008.3 0.0
12/02:00am 25.0 20.5 12.6 46 7.2 SSW 28 32 15 17 1008.4 1008.3 0.0
12/01:30am 25.7 20.8 12.5 44 7.6 SSW 30 37 16 20 1008.5 1008.4 0.0
12/01:00am 26.7 21.6 12.0 40 8.5 SSW 30 39 16 21 1008.6 1008.5 0.0
12/12:30am 27.3 22.5 11.7 37 9.0 SSW 28 35 15 19 1008.8 1008.7 0.0
12/12:00am 27.6 23.3 12.0 38 9.0 SSW 26 33 14 18 1008.9 1008.8 0.0
 
Date/Time
WST
Temp
°C
App
Temp
°C
Dew
Point
°C
Rel
Hum
%
Delta-T
°C
Wind Press
QNH
hPa
Press
MSL
hPa
Rain since
9am
mm
Dir  Spd
km/h
Gust
km/h
Spd
kts
Gust
kts
11/11:30pm 28.3 23.2 11.8 36 9.5 SSW 30 35 16 19 1008.8 1008.7 0.0
11/11:00pm 29.0 23.8 11.6 34 10.1 SSW 30 39 16 21 1008.7 1008.6 0.0
11/10:30pm 28.7 25.1 13.0 38 9.3 SSW 24 32 13 17 1008.7 1008.6 0.0
11/10:00pm 28.5 25.2 15.1 44 8.2 SW 26 32 14 17 1008.6 1008.5 0.0
11/09:30pm 28.8 24.5 15.3 43 8.3 SW 32 39 17 21 1008.4 1008.3 0.0
11/09:00pm 29.3 25.1 15.8 44 8.4 SW 32 41 17 22 1008.1 1008.0 0.0
11/08:30pm 29.9 25.8 16.0 43 8.6 SW 32 43 17 23 1007.7 1007.6 0.0
11/08:00pm 30.9 26.6 15.3 38 9.6 SW 32 39 17 21 1007.5 1007.4 0.0
11/07:30pm 32.5 27.7 14.6 34 11.0 SW 33 41 18 22 1007.0 1006.9 0.0
11/07:00pm 33.7 29.3 14.2 30 12.0 WSW 30 39 16 21 1006.6 1006.5 0.0
11/06:30pm 35.3 29.4 13.5 27 13.3 WSW 37 46 20 25 1006.1 1006.0 0.0
11/06:00pm 37.0 30.3 11.1 21 15.4 WSW 37 48 20 26 1006.0 1005.9 0.0
11/05:43pm 37.8 31.9 11.0 20 15.9 WSW 33 54 18 29 1005.9 1005.8 0.0
11/05:30pm 38.4 32.3 9.9 18 16.7 SW 32 46 17 25 1005.8 1005.7 0.0
11/05:00pm 41.0 33.4 0.3 8 21.0 SSW 30 39 16 21 1005.7 1005.6 0.0
11/04:30pm 41.7 34.5 0.8 8 21.3 SSW 28 41 15 22 1005.7 1005.6 0.0
11/04:00pm 42.0 34.8 1.0 8 21.5 SW 28 35 15 19 1005.8 1005.7 0.0
11/03:30pm 41.5 34.3 0.6 8 21.2 SSW 28 33 15 18 1005.9 1005.8 0.0
11/03:00pm 41.7 34.8 2.4 9 21.0 SW 28 37 15 20 1006.2 1006.1 0.0
11/02:30pm 41.4 35.2 2.2 9 20.8 SW 24 35 13 19 1006.6 1006.5 0.0
11/02:00pm 41.9 35.5 0.9 8 21.4 SSW 24 32 13 17 1006.9 1006.8 0.0
11/01:30pm 41.0 34.5 0.3 8 20.9 SSW 24 37 13 20 1007.2 1007.1 0.0
11/01:00pm 40.3 33.8 2.8 10 20.0 SSW 26 37 14 20 1007.5 1007.4 0.0
11/12:30pm 39.4 34.3 5.9 13 18.6 SSW 22 30 12 16 1007.9 1007.8 0.0
11/12:00pm 38.9 34.4 8.5 16 17.5 S 22 32 12 17 1008.1 1008.0 0.0
11/11:30am 37.7 33.8 10.9 20 15.9 S 22 30 12 16 1008.5 1008.4 0.0
11/11:00am 36.9 33.1 12.4 23 14.8 S 24 32 13 17 1008.9 1008.8 0.0
11/10:30am 35.3 32.0 12.9 26 13.5 S 22 30 12 16 1009.4 1009.3 0.0
11/10:00am 33.7 30.1 13.2 29 12.4 S 24 30 13 16 1009.6 1009.5 0.0
11/09:30am 31.7 28.2 13.5 33 11.0 S 24 33 13 18 1009.9 1009.8 0.0
11/09:00am 30.2 26.4 13.5 36 10.0 S 26 33 14 18 1009.8 1009.7 0.0
11/08:30am 29.1 25.1 14.1 40 9.0 S 28 33 15 18 1010.0 1009.9 0.0
11/08:00am 27.8 24.7 14.4 43 8.1 S 24 32 13 17 1010.1 1010.0 0.0
11/07:30am 26.1 21.7 14.2 48 7.1 SSW 30 37 16 20 1009.7 1009.6 0.0
11/07:00am 24.9 20.4 13.8 50 6.5 SSW 30 35 16 19 1009.5 1009.4 0.0
11/06:30am 24.3 19.7 13.5 51 6.3 SSW 30 35 16 19 1009.2 1009.1 0.0
11/06:00am 23.5 18.6 13.7 54 5.7 SSW 32 39 17 21 1008.7 1008.6 0.0
11/05:30am 23.5 19.9 14.2 56 5.5 SSW 26 33 14 18 1008.4 1008.3 0.0
11/05:00am 23.8 19.5 14.5 56 5.5 SSW 30 39 16 21 1008.1 1008.0 0.0
11/04:30am 24.2 20.9 14.9 56 5.6 SSW 26 33 14 18 1008.1 1008.0 0.0
11/04:00am 24.6 21.7 15.0 55 5.8 SSW 24 33 13 18 1008.0 1007.9 0.0
11/03:30am 24.9 22.3 15.0 54 5.9 SSW 22 28 12 15 1007.7 1007.6 0.0
11/03:00am 25.3 21.9 14.7 51 6.3 SSW 26 33 14 18 1007.3 1007.2 0.0
11/02:30am 25.7 22.7 14.8 51 6.5 SSW 24 30 13 16 1007.1 1007.0 0.0
11/02:00am 26.1 23.0 14.6 49 6.9 SSW 24 30 13 16 1007.2 1007.1 0.0
11/01:30am 26.5 22.7 14.6 48 7.1 SSW 28 35 15 19 1007.1 1007.0 0.0
11/01:00am 26.9 23.4 14.6 46 7.4 SSW 26 35 14 19 1007.1 1007.0 0.0
11/12:30am 27.2 24.0 14.2 44 7.8 SW 24 33 13 18 1007.3 1007.2 0.0
11/12:00am 27.3 24.7 15.0 47 7.5 SW 22 28 12 15 1007.6 1007.5 0.0
 
Date/Time
WST
Temp
°C
App
Temp
°C
Dew
Point
°C
Rel
Hum
%
Delta-T
°C
Wind Press
QNH
hPa
Press
MSL
hPa
Rain since
9am
mm
Dir  Spd
km/h
Gust
km/h
Spd
kts
Gust
kts
10/11:30pm 27.7 24.8 15.0 45 7.7 SW 24 32 13 17 1007.8 1007.7 0.0
10/11:00pm 28.1 24.9 15.4 46 7.8 SW 26 32 14 17 1007.8 1007.7 0.0
10/10:30pm 28.7 25.7 15.9 45 7.9 SW 26 35 14 19 1007.8 1007.7 0.0
10/10:00pm 29.2 26.4 16.4 46 8.0 SW 26 33 14 18 1007.8 1007.7 0.0
10/09:30pm 29.9 26.7 16.3 43 8.5 SW 28 35 15 19 1007.5 1007.4 0.0
10/09:00pm 30.5 27.0 16.5 43 8.8 SW 30 39 16 21 1007.2 1007.1 0.0
10/08:30pm 31.3 27.8 16.5 41 9.3 SW 30 41 16 22 1007.0 1006.9 0.0
10/08:00pm 32.0 28.4 16.3 39 9.9 SW 30 39 16 21 1006.7 1006.6 0.0
10/07:30pm 32.5 29.3 16.3 37 10.2 WSW 28 37 15 20 1006.4 1006.3 0.0
10/07:00pm 33.8 29.6 15.7 33 11.4 WSW 32 43 17 23 1006.1 1006.0 0.0
10/06:30pm 35.1 30.4 14.9 29 12.6 WSW 33 43 18 23 1005.6 1005.5 0.0
10/06:00pm 36.7 31.5 13.5 25 14.3 WSW 33 48 18 26 1005.2 1005.1 0.0
10/05:30pm 35.0 31.6 18.1 36 11.0 W 33 41 18 22 1004.9 1004.8 0.0
10/05:00pm 34.1 30.3 18.2 39 10.4 W 35 43 19 23 1004.7 1004.6 0.0
10/04:30pm 34.3 30.8 17.5 36 10.8 W 32 44 17 24 1004.7 1004.6 0.0
10/04:00pm 34.6 30.7 17.8 37 10.9 W 35 44 19 24 1004.8 1004.7 0.0
10/03:30pm 34.6 31.4 18.6 38 10.5 W 33 41 18 22 1005.0 1004.9 0.0
10/03:00pm 34.9 31.4 18.0 36 11.0 WNW 33 39 18 21 1005.3 1005.2 0.0
10/02:30pm 34.0 31.4 19.6 42 9.5 WNW 32 41 17 22 1005.6 1005.5 0.0
10/02:00pm 34.8 32.1 19.2 39 10.3 WNW 32 39 17 21 1005.9 1005.8 0.0
10/01:30pm 34.6 32.3 19.4 40 10.0 WNW 30 35 16 19 1006.1 1006.0 0.0
10/01:00pm 33.9 31.0 18.8 41 9.9 WNW 32 39 17 21 1006.4 1006.3 0.0
10/12:57pm 34.4 31.9 18.8 39 10.2 WNW 30 39 16 21 1006.5 1006.4 0.0
10/12:30pm 38.9 39.5 17.6 28 13.9 SSE 11 20 6 11 1007.0 1006.9 0.0

Other Formats:

Comma delimited format used in spreadsheet applications
http://www.bom.gov.au/fwo/IDW60801/IDW60801.95305.axf

JavaScript Object Notation format (JSON) in row-major order
http://www.bom.gov.au/fwo/IDW60801/IDW60801.95305.json